Time;durP1;ratioP1;P1;durP2;ratioP2;P2;SDS_P1;SDS_P2;PMS_P1;PMS_P2;Temp;Humidity;BMP_temperature;BMP_pressure;BME280_temperature;BME280_humidity;BME280_pressure;Samples;Min_cycle;Max_cycle;Signal;HPM_P1;HPM_P2
2023/08/19 10:34:59;;;;;;;6.95;6.45;;;26.70;99.90;;;;;;5127061;27;20301;-74
2023/08/19 10:37:29;;;;;;;7.32;6.80;;;27.10;99.90;;;;;;5143234;27;20173;-77
2023/08/19 10:40:15;;;;;;;6.70;6.13;;;27.20;99.90;;;;;;5143903;27;20178;-82
2023/08/19 10:42:40;;;;;;;7.00;6.40;;;27.30;99.90;;;;;;5115283;28;20244;-80
2023/08/19 10:45:18;;;;;;;6.30;5.90;;;27.40;99.90;;;;;;5114281;28;20613;-83
2023/08/19 10:47:44;;;;;;;7.97;5.63;;;27.50;99.90;;;;;;5114594;28;20178;-82
2023/08/19 10:50:11;;;;;;;5.85;5.45;;;27.70;99.90;;;;;;5114050;28;20304;-81
2023/08/19 10:53:00;;;;;;;6.22;5.82;;;27.70;99.90;;;;;;5114533;28;20563;-81
2023/08/19 10:55:26;;;;;;;5.38;5.07;;;27.70;99.90;;;;;;5116593;28;20166;-79
2023/08/19 10:57:53;;;;;;;4.82;4.53;;;27.80;99.90;;;;;;5118578;28;20241;-82
2023/08/19 11:00:31;;;;;;;5.40;5.00;;;27.80;99.90;;;;;;5118163;28;20260;-82
2023/08/19 11:02:57;;;;;;;5.40;5.00;;;27.90;99.90;;;;;;5134147;28;20217;-82
2023/08/19 11:05:26;;;;;;;5.65;5.32;;;27.90;99.90;;;;;;5117078;28;20176;-82
2023/08/19 11:07:54;;;;;;;5.70;5.30;;;27.90;99.90;;;;;;5121709;28;20177;-83
2023/08/19 11:10:20;;;;;;;5.70;5.30;;;27.80;99.90;;;;;;5114562;28;20188;-80
2023/08/19 11:12:48;;;;;;;5.88;5.38;;;27.90;99.90;;;;;;5122927;28;20161;-80
2023/08/19 11:15:22;;;;;;;6.63;6.13;;;28.00;99.90;;;;;;5131996;28;20186;-76
2023/08/19 11:17:48;;;;;;;5.68;5.28;;;28.00;99.90;;;;;;5116413;28;20170;-80
2023/08/19 11:20:15;;;;;;;6.00;5.60;;;28.00;99.90;;;;;;5113967;28;20185;-82
2023/08/19 11:22:42;;;;;;;5.68;5.35;;;28.00;99.90;;;;;;5113550;28;20676;-81
2023/08/19 11:25:09;;;;;;;5.63;5.18;;;28.00;99.90;;;;;;5113870;28;20273;-78
2023/08/19 11:27:35;;;;;;;5.60;5.20;;;28.10;99.90;;;;;;5113877;28;20170;-79
2023/08/19 11:30:01;;;;;;;5.85;5.45;;;28.10;99.90;;;;;;5113504;28;20264;-79
2023/08/19 11:32:29;;;;;;;6.00;5.60;;;28.00;99.90;;;;;;5114235;28;20584;-81
2023/08/19 11:34:55;;;;;;;5.50;5.10;;;27.90;99.90;;;;;;5122802;28;20213;-81
2023/08/19 11:37:21;;;;;;;5.25;4.95;;;28.00;99.90;;;;;;5135126;28;20192;-82
2023/08/19 11:39:47;;;;;;;5.75;5.35;;;28.30;99.90;;;;;;5142089;28;20177;-80
2023/08/19 11:42:13;;;;;;;5.55;5.15;;;28.50;99.90;;;;;;5134049;28;20215;-80
2023/08/19 11:44:42;;;;;;;6.18;5.68;;;28.40;99.90;;;;;;5134487;28;20237;-81
2023/08/19 11:47:08;;;;;;;5.75;5.35;;;28.40;99.90;;;;;;5115485;28;20196;-82
2023/08/19 11:49:34;;;;;;;5.55;5.15;;;28.40;99.90;;;;;;5134125;28;20207;-83
2023/08/19 11:52:00;;;;;;;6.00;5.60;;;28.40;99.90;;;;;;5133409;28;20166;-81
2023/08/19 11:54:26;;;;;;;5.85;5.45;;;28.40;99.90;;;;;;5134123;28;20260;-79
2023/08/19 11:56:59;;;;;;;5.47;5.15;;;28.40;99.90;;;;;;5133948;28;20224;-80
2023/08/19 11:59:33;;;;;;;5.60;5.30;;;28.40;99.90;;;;;;5134189;28;20177;-80
2023/08/19 12:02:06;;;;;;;5.25;4.95;;;28.40;99.90;;;;;;5133797;28;20258;-80
2023/08/19 12:04:36;;;;;;;5.28;4.88;;;28.50;99.90;;;;;;5134116;28;20177;-80
2023/08/19 12:07:10;;;;;;;5.70;5.40;;;28.50;99.90;;;;;;5134516;27;20226;-80
2023/08/19 12:09:36;;;;;;;5.80;5.47;;;28.60;99.90;;;;;;5137946;27;20222;-78
2023/08/19 12:12:08;;;;;;;6.07;5.68;;;28.70;99.90;;;;;;5137332;27;20655;-82
2023/08/19 12:14:34;;;;;;;5.93;5.53;;;28.70;99.90;;;;;;5139182;27;20204;-80
2023/08/19 12:16:59;;;;;;;5.63;5.30;;;28.60;99.90;;;;;;5139909;27;20177;-82
2023/08/19 12:19:25;;;;;;;5.50;5.10;;;28.50;99.90;;;;;;5153230;27;20165;-79
2023/08/19 12:21:51;;;;;;;5.75;5.35;;;28.30;99.90;;;;;;5159902;27;20223;-81
2023/08/19 12:24:17;;;;;;;5.22;4.93;;;28.10;99.90;;;;;;5157717;27;20184;-83
2023/08/19 12:26:42;;;;;;;5.60;5.10;;;28.10;99.90;;;;;;5144809;27;20200;-81
2023/08/19 12:29:08;;;;;;;5.57;5.20;;;28.10;99.90;;;;;;5137686;27;20174;-79
2023/08/19 12:31:34;;;;;;;5.30;5.00;;;28.10;99.90;;;;;;5137776;27;20169;-78
2023/08/19 12:34:01;;;;;;;5.47;5.15;;;28.20;99.90;;;;;;5135665;27;20189;-79
2023/08/19 12:36:28;;;;;;;5.10;4.80;;;28.30;99.90;;;;;;5118258;28;20170;-78
2023/08/19 12:38:53;;;;;;;5.47;5.18;;;28.30;99.90;;;;;;5129772;28;20189;-81
2023/08/19 12:41:19;;;;;;;5.35;5.05;;;28.30;99.90;;;;;;5133872;28;20640;-81
2023/08/19 12:43:45;;;;;;;5.32;4.82;;;28.50;99.90;;;;;;5118210;28;20214;-77
2023/08/19 12:46:11;;;;;;;5.65;5.25;;;28.60;99.90;;;;;;5117371;28;20637;-81
2023/08/19 12:48:37;;;;;;;5.88;5.38;;;28.70;99.90;;;;;;5117676;28;20593;-81
2023/08/19 12:51:03;;;;;;;6.35;5.75;;;28.70;99.90;;;;;;5125733;28;20176;-82
2023/08/19 12:53:29;;;;;;;5.22;4.90;;;28.90;99.90;;;;;;5127813;27;20552;-79
2023/08/19 12:55:55;;;;;;;5.57;5.18;;;28.90;99.90;;;;;;5116425;28;20181;-80
2023/08/19 12:58:21;;;;;;;5.55;5.20;;;29.00;99.90;;;;;;5098096;28;20201;-79
2023/08/19 13:00:46;;;;;;;5.60;5.20;;;29.10;99.90;;;;;;5117052;28;20181;-80
2023/08/19 13:03:12;;;;;;;5.70;5.40;;;29.00;99.90;;;;;;5125698;28;20212;-81
2023/08/19 13:05:38;;;;;;;5.78;5.38;;;29.00;99.90;;;;;;5120413;28;20208;-80
2023/08/19 13:08:04;;;;;;;5.70;5.30;;;28.90;99.90;;;;;;5120932;28;20672;-83
2023/08/19 13:10:30;;;;;;;5.75;4.97;;;28.90;99.90;;;;;;5119007;28;20170;-79
2023/08/19 13:12:55;;;;;;;6.20;5.80;;;29.00;99.90;;;;;;5115867;28;20185;-80
2023/08/19 13:15:21;;;;;;;6.07;5.57;;;29.10;99.90;;;;;;5116001;28;20694;-80
2023/08/19 13:17:47;;;;;;;6.47;5.97;;;29.10;99.90;;;;;;5115505;27;20251;-81
2023/08/19 13:20:17;;;;;;;6.65;6.10;;;29.10;99.90;;;;;;5134829;28;20158;-79
2023/08/19 13:22:43;;;;;;;5.68;5.28;;;29.10;99.90;;;;;;5131253;28;20542;-81
2023/08/19 13:25:09;;;;;;;5.18;4.88;;;29.00;99.90;;;;;;5116706;28;20641;-80
2023/08/19 13:27:35;;;;;;;5.78;5.38;;;29.00;99.90;;;;;;5115994;28;20569;-82
2023/08/19 13:30:00;;;;;;;5.80;5.38;;;28.90;99.90;;;;;;5116403;28;20227;-81
2023/08/19 13:32:26;;;;;;;8.18;7.50;;;28.80;99.90;;;;;;5115076;28;20700;-82
2023/08/19 13:34:52;;;;;;;6.00;5.60;;;28.70;99.90;;;;;;5133203;27;20276;-78
2023/08/19 13:37:18;;;;;;;5.85;5.45;;;28.70;99.90;;;;;;5156725;27;20184;-80
2023/08/19 13:39:44;;;;;;;5.90;5.50;;;28.60;99.90;;;;;;5156809;27;20511;-77
2023/08/19 13:42:09;;;;;;;5.57;5.20;;;28.50;99.90;;;;;;5156641;27;20204;-78
2023/08/19 13:44:35;;;;;;;5.63;5.20;;;28.40;99.90;;;;;;5156610;27;20183;-76
2023/08/19 13:47:01;;;;;;;5.65;5.25;;;28.40;99.90;;;;;;5156703;27;20199;-77
2023/08/19 13:49:26;;;;;;;6.80;5.72;;;28.20;99.90;;;;;;5156506;27;20529;-79
2023/08/19 13:51:53;;;;;;;5.85;5.43;;;28.10;99.90;;;;;;5156470;27;20505;-77
2023/08/19 13:54:19;;;;;;;5.95;5.53;;;28.00;99.90;;;;;;5156430;27;20700;-78
2023/08/19 13:56:47;;;;;;;5.63;5.22;;;27.90;99.90;;;;;;5156623;27;20173;-80
2023/08/19 13:59:13;;;;;;;6.20;5.70;;;27.90;99.90;;;;;;5137909;27;20653;-80
2023/08/19 14:01:39;;;;;;;6.13;5.72;;;27.90;99.90;;;;;;5156520;27;20204;-78
2023/08/19 14:04:05;;;;;;;5.95;5.55;;;28.00;99.90;;;;;;5156007;27;20223;-77
2023/08/19 14:06:33;;;;;;;6.05;5.70;;;28.00;99.90;;;;;;5156170;27;20181;-77
2023/08/19 14:08:58;;;;;;;6.25;5.72;;;27.90;99.90;;;;;;5160576;27;20183;-78
2023/08/19 14:11:24;;;;;;;6.38;5.88;;;27.40;99.90;;;;;;5166686;27;20176;-81
2023/08/19 14:13:51;;;;;;;6.22;5.70;;;27.90;99.90;;;;;;5160191;27;20550;-77
2023/08/19 14:16:18;;;;;;;5.85;5.45;;;27.90;99.90;;;;;;5159945;27;20632;-78
2023/08/19 14:18:48;;;;;;;5.95;5.55;;;27.90;99.90;;;;;;5176639;27;20169;-78
2023/08/19 14:21:14;;;;;;;5.80;5.40;;;28.00;99.90;;;;;;5138242;27;20177;-78
2023/08/19 14:23:40;;;;;;;6.60;6.10;;;28.00;99.90;;;;;;5156420;27;20264;-79
2023/08/19 14:26:06;;;;;;;5.65;5.25;;;28.00;99.90;;;;;;5141618;27;20184;-81
2023/08/19 14:28:32;;;;;;;6.35;5.88;;;28.00;99.90;;;;;;5162918;27;20168;-77
2023/08/19 14:30:58;;;;;;;6.63;6.10;;;27.90;99.90;;;;;;5170838;27;20176;-77
2023/08/19 14:33:24;;;;;;;6.22;5.82;;;27.90;99.90;;;;;;5155788;27;20173;-77
2023/08/19 14:35:50;;;;;;;6.75;6.25;;;27.90;99.90;;;;;;5155615;27;20227;-78
2023/08/19 14:38:16;;;;;;;6.60;6.07;;;27.90;99.90;;;;;;5156011;27;20627;-79
2023/08/19 14:40:42;;;;;;;6.72;6.22;;;27.90;99.90;;;;;;5155931;27;20180;-79
2023/08/19 14:43:08;;;;;;;6.47;5.97;;;27.90;99.90;;;;;;5155339;27;20212;-77
2023/08/19 14:45:34;;;;;;;6.90;6.30;;;27.90;99.90;;;;;;5155730;27;20217;-81
2023/08/19 14:48:00;;;;;;;6.70;6.20;;;27.90;99.90;;;;;;5155785;27;20176;-83
2023/08/19 14:50:26;;;;;;;6.55;5.93;;;27.90;99.90;;;;;;5155516;27;20577;-78
2023/08/19 14:52:52;;;;;;;6.53;6.03;;;28.00;99.90;;;;;;5136633;27;20635;-82
2023/08/19 14:55:18;;;;;;;6.28;5.88;;;28.00;99.90;;;;;;5154931;27;20272;-76
2023/08/19 14:57:46;;;;;;;6.07;5.70;;;28.00;99.90;;;;;;5155250;27;20528;-76
2023/08/19 15:00:12;;;;;;;6.68;6.20;;;28.00;99.90;;;;;;5155123;27;20639;-79
2023/08/19 15:02:46;;;;;;;7.18;6.60;;;28.00;99.90;;;;;;5135884;27;20230;-77
2023/08/19 15:05:13;;;;;;;7.03;6.55;;;28.00;99.90;;;;;;5154666;27;20216;-79
2023/08/19 15:07:38;;;;;;;7.07;6.63;;;28.10;99.90;;;;;;5155101;27;20185;-76
2023/08/19 15:10:05;;;;;;;6.45;5.85;;;28.10;99.90;;;;;;5155014;27;20568;-77
2023/08/19 15:12:30;;;;;;;6.97;6.47;;;28.20;99.90;;;;;;5154504;27;20173;-81
2023/08/19 15:14:56;;;;;;;6.32;5.93;;;28.20;99.90;;;;;;5154646;27;20544;-81
2023/08/19 15:17:22;;;;;;;6.95;6.32;;;28.30;99.90;;;;;;5136895;27;20180;-77
2023/08/19 15:19:48;;;;;;;6.38;5.88;;;28.30;99.90;;;;;;5155673;27;20176;-79
2023/08/19 15:22:13;;;;;;;7.03;6.32;;;28.30;99.90;;;;;;5171872;27;20232;-78
2023/08/19 15:24:39;;;;;;;7.85;7.25;;;28.40;99.90;;;;;;5158811;27;20172;-76
2023/08/19 15:27:05;;;;;;;6.68;6.25;;;28.40;99.90;;;;;;5159366;27;20177;-77
2023/08/19 15:29:31;;;;;;;6.63;6.22;;;28.40;99.90;;;;;;5158519;27;20176;-80
2023/08/19 15:31:57;;;;;;;6.90;6.40;;;28.50;99.90;;;;;;5171654;27;20285;-77
2023/08/19 15:34:27;;;;;;;6.85;6.35;;;28.40;99.90;;;;;;5154293;27;20254;-78
2023/08/19 15:36:53;;;;;;;7.10;6.60;;;28.40;99.90;;;;;;5155029;27;20247;-79
2023/08/19 15:39:19;;;;;;;7.03;6.43;;;28.30;99.90;;;;;;5155001;27;20176;-78
2023/08/19 15:41:44;;;;;;;6.90;6.38;;;28.30;99.90;;;;;;5137791;27;20233;-77
2023/08/19 15:44:10;;;;;;;6.95;6.25;;;28.40;99.90;;;;;;5138901;27;20542;-76
2023/08/19 15:46:36;;;;;;;7.25;6.70;;;28.40;99.90;;;;;;5143626;27;20310;-76
2023/08/19 15:49:02;;;;;;;7.47;6.88;;;28.30;99.90;;;;;;5142013;27;20177;-75
2023/08/19 15:51:28;;;;;;;8.40;7.55;;;28.30;99.90;;;;;;5124253;27;20705;-80
2023/08/19 15:53:54;;;;;;;7.30;6.78;;;28.20;99.90;;;;;;5134049;27;20181;-77
2023/08/19 15:56:19;;;;;;;7.25;6.65;;;28.20;99.90;;;;;;5156514;27;20181;-77
2023/08/19 15:58:45;;;;;;;8.68;7.97;;;28.20;99.90;;;;;;5139568;27;20679;-80
2023/08/19 16:01:11;;;;;;;7.90;7.30;;;28.10;99.90;;;;;;5165988;27;20185;-78
2023/08/19 16:03:36;;;;;;;7.07;6.47;;;28.20;99.90;;;;;;5127614;27;20679;-79
2023/08/19 16:06:03;;;;;;;6.82;6.43;;;28.20;99.90;;;;;;5140056;27;20173;-80
2023/08/19 16:08:29;;;;;;;7.35;6.85;;;28.20;99.90;;;;;;5156696;27;20192;-76
2023/08/19 16:11:01;;;;;;;7.25;6.57;;;28.10;99.90;;;;;;5126791;27;20662;-80
2023/08/19 16:13:27;;;;;;;8.10;7.03;;;28.10;99.90;;;;;;5119459;27;20537;-78
2023/08/19 16:15:55;;;;;;;7.53;6.97;;;28.00;99.90;;;;;;5137836;27;20658;-78
2023/08/19 16:18:21;;;;;;;7.10;6.60;;;27.90;99.90;;;;;;5118890;27;20223;-79
2023/08/19 16:20:47;;;;;;;7.57;6.97;;;27.80;99.90;;;;;;5137597;27;20169;-75
2023/08/19 16:23:13;;;;;;;7.60;6.97;;;27.80;99.90;;;;;;5118529;27;20213;-77
2023/08/19 16:25:42;;;;;;;7.45;6.85;;;27.70;99.90;;;;;;5137122;27;20183;-77
2023/08/19 16:28:08;;;;;;;7.97;7.38;;;27.70;99.90;;;;;;5137532;27;20245;-78
2023/08/19 16:30:35;;;;;;;7.40;6.90;;;27.80;99.90;;;;;;5119085;27;20237;-77
2023/08/19 16:33:01;;;;;;;8.18;7.47;;;27.70;99.90;;;;;;5137182;27;20177;-77
2023/08/19 16:35:27;;;;;;;7.70;7.10;;;27.70;99.90;;;;;;5137066;27;20308;-80
2023/08/19 16:37:53;;;;;;;8.85;7.65;;;27.60;99.90;;;;;;5137394;27;20208;-81
2023/08/19 16:40:19;;;;;;;8.65;7.85;;;27.60;99.90;;;;;;5118703;27;20706;-80
2023/08/19 16:42:44;;;;;;;8.10;7.40;;;27.60;99.90;;;;;;5137005;27;20205;-81
2023/08/19 16:45:10;;;;;;;8.00;7.40;;;27.60;99.90;;;;;;5136653;27;20181;-80
2023/08/19 16:47:36;;;;;;;8.13;7.53;;;27.60;99.90;;;;;;5118317;27;20196;-78
2023/08/19 16:50:03;;;;;;;8.10;7.47;;;27.60;99.90;;;;;;5136899;27;20252;-77
2023/08/19 16:52:28;;;;;;;7.88;7.28;;;27.60;99.90;;;;;;5136957;27;20586;-80
2023/08/19 16:54:55;;;;;;;8.20;7.50;;;27.60;99.90;;;;;;5136528;27;20632;-82
2023/08/19 16:57:21;;;;;;;10.32;9.52;;;27.50;99.90;;;;;;5137221;27;20203;-76
2023/08/19 16:59:47;;;;;;;9.52;8.63;;;27.50;99.90;;;;;;5118445;27;20556;-80
2023/08/19 17:02:12;;;;;;;8.50;7.70;;;27.40;99.90;;;;;;5136218;27;20209;-80
2023/08/19 17:04:38;;;;;;;11.15;10.15;;;27.40;99.90;;;;;;5136829;27;20259;-80
2023/08/19 17:07:04;;;;;;;8.95;8.15;;;27.40;99.90;;;;;;5136849;27;20262;-78
2023/08/19 17:09:30;;;;;;;8.27;7.68;;;27.30;99.90;;;;;;5137273;27;20238;-80
2023/08/19 17:11:55;;;;;;;8.60;7.90;;;27.30;99.90;;;;;;5130679;27;20819;-80
2023/08/19 17:14:21;;;;;;;9.20;8.40;;;27.30;99.90;;;;;;5136757;27;20636;-78
2023/08/19 17:16:47;;;;;;;8.32;7.65;;;27.20;99.90;;;;;;5123304;27;20220;-79
2023/08/19 17:19:13;;;;;;;9.15;8.40;;;27.20;99.90;;;;;;5101751;28;20281;-80
2023/08/19 17:21:39;;;;;;;9.10;8.40;;;27.20;99.90;;;;;;5116398;28;20608;-80
2023/08/19 17:24:06;;;;;;;9.80;9.02;;;27.00;99.90;;;;;;5117785;28;20261;-79
2023/08/19 17:26:31;;;;;;;9.55;8.75;;;27.00;99.90;;;;;;5115897;28;20185;-82
2023/08/19 17:28:57;;;;;;;9.65;8.82;;;26.90;99.90;;;;;;5116411;28;20174;-78
2023/08/19 17:31:23;;;;;;;9.13;8.43;;;26.90;99.90;;;;;;5118057;28;20174;-78
2023/08/19 17:33:50;;;;;;;10.18;9.38;;;26.80;99.90;;;;;;5132094;28;20185;-81
2023/08/19 17:36:15;;;;;;;9.85;8.85;;;26.70;99.90;;;;;;5120621;28;20182;-76
2023/08/19 17:38:41;;;;;;;9.65;8.95;;;26.70;99.90;;;;;;5117692;28;20192;-79
2023/08/19 17:41:08;;;;;;;10.23;9.25;;;26.60;99.90;;;;;;5119051;27;20201;-78
2023/08/19 17:43:33;;;;;;;9.75;8.90;;;26.60;99.90;;;;;;5132389;27;20212;-77
2023/08/19 17:46:01;;;;;;;8.88;8.18;;;26.50;99.90;;;;;;5127089;28;20170;-78
2023/08/19 17:48:28;;;;;;;10.38;9.57;;;26.40;99.90;;;;;;5116976;28;20208;-83
2023/08/19 17:50:54;;;;;;;10.32;9.52;;;26.40;99.90;;;;;;5116914;28;20174;-81
2023/08/19 17:53:20;;;;;;;10.23;9.23;;;26.40;99.90;;;;;;5120326;28;20185;-78
2023/08/19 17:55:45;;;;;;;10.68;9.82;;;26.40;99.90;;;;;;5135006;28;20177;-77
2023/08/19 17:58:12;;;;;;;10.23;9.38;;;26.30;99.90;;;;;;5136361;28;20170;-78
2023/08/19 18:00:40;;;;;;;10.27;9.38;;;26.30;99.90;;;;;;5131044;28;20182;-80
2023/08/19 18:03:06;;;;;;;11.93;10.82;;;26.20;99.90;;;;;;5115892;28;20197;-82
2023/08/19 18:05:32;;;;;;;9.98;9.18;;;26.10;99.90;;;;;;5114083;28;20182;-83
2023/08/19 18:07:57;;;;;;;11.05;9.95;;;26.00;99.90;;;;;;5116951;28;20510;-80
2023/08/19 18:10:27;;;;;;;11.18;10.27;;;26.00;99.90;;;;;;5124695;27;20189;-78
2023/08/19 18:12:53;;;;;;;10.75;9.90;;;26.00;99.90;;;;;;5136304;27;20205;-77
2023/08/19 18:15:19;;;;;;;10.70;9.80;;;25.90;99.90;;;;;;5134941;27;20220;-80
2023/08/19 18:17:45;;;;;;;10.98;9.88;;;25.80;99.90;;;;;;5135451;27;20173;-77
2023/08/19 18:22:49;;;;;;;12.57;10.82;;;25.80;99.90;;;;;;5117040;22;20741;-75
2023/08/19 18:25:15;;;;;;;11.07;10.13;;;25.70;99.90;;;;;;5096254;28;20209;-78
2023/08/19 18:27:50;;;;;;;11.32;10.32;;;25.70;99.90;;;;;;5114465;28;20208;-78
2023/08/19 18:30:18;;;;;;;11.07;10.00;;;25.70;99.90;;;;;;5096377;28;20233;-78
2023/08/19 18:32:48;;;;;;;11.35;10.30;;;25.70;99.90;;;;;;5114344;28;20189;-77
2023/08/19 18:35:14;;;;;;;11.48;10.48;;;25.60;99.90;;;;;;5114490;28;20174;-80
2023/08/19 18:37:41;;;;;;;11.07;10.07;;;25.60;99.90;;;;;;5114744;28;20185;-78
2023/08/19 18:40:09;;;;;;;11.95;10.88;;;25.60;99.90;;;;;;5115471;28;20174;-79
2023/08/19 18:42:37;;;;;;;11.63;10.63;;;25.50;99.90;;;;;;5125738;28;20213;-77
2023/08/19 18:45:08;;;;;;;11.70;10.70;;;25.40;99.90;;;;;;5106127;28;20573;-78
2023/08/19 18:48:03;;;;;;;10.85;9.85;;;25.40;99.90;;;;;;5120188;28;20209;-75
2023/08/19 18:50:30;;;;;;;12.00;10.70;;;25.40;99.90;;;;;;5115280;28;20166;-80
2023/08/19 18:52:55;;;;;;;11.52;10.43;;;25.40;99.90;;;;;;5114654;28;20182;-79
2023/08/19 18:55:22;;;;;;;11.23;10.32;;;25.40;99.90;;;;;;5116565;28;20177;-78
2023/08/19 18:57:48;;;;;;;12.10;11.02;;;25.40;99.90;;;;;;5129733;28;20217;-78
2023/08/19 19:00:14;;;;;;;11.50;10.38;;;25.40;99.90;;;;;;5128734;28;20182;-79
2023/08/19 19:02:41;;;;;;;10.73;9.85;;;25.30;99.90;;;;;;5098967;28;20221;-80
2023/08/19 19:05:08;;;;;;;11.45;10.40;;;25.30;99.90;;;;;;5082795;28;20288;-78
2023/08/19 19:07:35;;;;;;;11.43;10.23;;;25.30;99.90;;;;;;5118191;28;20628;-79
2023/08/19 19:10:02;;;;;;;11.05;10.10;;;25.30;99.90;;;;;;5118333;28;20173;-78
2023/08/19 19:12:28;;;;;;;11.68;10.48;;;25.30;99.90;;;;;;5114170;28;20174;-81
2023/08/19 19:14:55;;;;;;;12.07;10.93;;;25.40;99.90;;;;;;5114166;28;20178;-80
2023/08/19 19:17:21;;;;;;;11.82;10.65;;;25.20;99.90;;;;;;5113592;28;20189;-78
2023/08/19 19:19:48;;;;;;;12.07;10.82;;;25.20;99.90;;;;;;5113998;28;20267;-78
2023/08/19 19:22:14;;;;;;;11.80;10.60;;;25.20;99.90;;;;;;5092072;28;20591;-77
2023/08/19 19:24:40;;;;;;;11.50;10.30;;;25.20;99.90;;;;;;5092417;28;20186;-76
2023/08/19 19:27:07;;;;;;;11.57;10.38;;;25.20;99.90;;;;;;5092052;28;20178;-79
2023/08/19 19:29:33;;;;;;;11.65;10.32;;;25.20;99.90;;;;;;5093514;28;20183;-80
2023/08/19 19:32:01;;;;;;;11.75;10.65;;;25.10;99.90;;;;;;5093269;28;20204;-80
2023/08/19 19:34:27;;;;;;;11.73;10.65;;;25.10;99.90;;;;;;5094654;28;20710;-78
2023/08/19 19:36:54;;;;;;;12.15;10.98;;;25.10;99.90;;;;;;5098026;28;20190;-78
2023/08/19 19:39:19;;;;;;;12.75;11.50;;;25.10;99.90;;;;;;5093281;28;20171;-76
2023/08/19 19:41:45;;;;;;;11.65;10.55;;;25.00;99.90;;;;;;5092928;28;20185;-76
2023/08/19 19:44:11;;;;;;;11.88;10.75;;;25.00;99.90;;;;;;5093746;28;20186;-76
2023/08/19 19:46:37;;;;;;;12.50;11.40;;;24.90;99.90;;;;;;5094264;28;20603;-76
2023/08/19 19:49:04;;;;;;;11.95;10.85;;;24.90;99.90;;;;;;5095578;28;20202;-82
2023/08/19 19:51:30;;;;;;;12.40;11.15;;;24.90;99.90;;;;;;5094760;28;20175;-83
2023/08/19 19:53:56;;;;;;;11.95;10.85;;;25.00;99.90;;;;;;5093253;28;20209;-83
2023/08/19 19:56:23;;;;;;;12.77;11.68;;;24.90;99.90;;;;;;5093254;28;20665;-78
2023/08/19 19:58:49;;;;;;;12.18;11.13;;;24.70;99.90;;;;;;5091840;28;20247;-79
2023/08/19 20:01:16;;;;;;;12.15;10.93;;;24.60;99.90;;;;;;5093089;28;20191;-78
2023/08/19 20:03:42;;;;;;;12.35;11.20;;;24.60;99.90;;;;;;5092892;28;20306;-79
2023/08/19 20:06:08;;;;;;;12.20;11.20;;;24.60;99.90;;;;;;5093314;28;20210;-80
2023/08/19 20:08:34;;;;;;;12.38;11.18;;;24.60;99.90;;;;;;5092879;28;20175;-79
2023/08/19 20:11:00;;;;;;;12.15;11.13;;;24.60;99.90;;;;;;5092843;28;20210;-79
2023/08/19 20:13:27;;;;;;;12.75;11.55;;;24.60;99.90;;;;;;5092833;28;20175;-80
2023/08/19 20:15:56;;;;;;;11.93;10.82;;;25.10;99.90;;;;;;5093019;28;20248;-78
2023/08/19 20:18:22;;;;;;;12.30;11.10;;;24.50;99.90;;;;;;5093005;28;20604;-80
2023/08/19 20:20:48;;;;;;;12.32;11.15;;;24.50;99.90;;;;;;5103397;28;20243;-79
2023/08/19 20:23:14;;;;;;;11.82;10.68;;;24.40;99.90;;;;;;5127721;28;20192;-77
2023/08/19 20:25:40;;;;;;;12.50;11.00;;;24.40;99.90;;;;;;5119516;28;20174;-77
2023/08/19 20:28:07;;;;;;;12.35;11.15;;;24.40;99.90;;;;;;5114780;28;20197;-81
2023/08/19 20:30:33;;;;;;;13.82;12.25;;;24.30;99.90;;;;;;5117161;28;20188;-79
2023/08/19 20:32:59;;;;;;;12.32;11.13;;;24.30;99.90;;;;;;5116760;28;20201;-80
2023/08/19 20:35:25;;;;;;;12.77;11.55;;;24.20;99.90;;;;;;5134068;28;20623;-78
2023/08/19 20:37:51;;;;;;;12.98;11.77;;;24.20;99.90;;;;;;5128526;28;20192;-80
2023/08/19 20:40:18;;;;;;;12.40;11.25;;;24.20;99.90;;;;;;5119210;28;20180;-81
2023/08/19 20:42:44;;;;;;;13.50;12.20;;;24.40;99.90;;;;;;5122743;28;20210;-81
2023/08/19 20:45:11;;;;;;;12.93;11.52;;;24.20;99.90;;;;;;5134058;28;20204;-77
2023/08/19 20:47:38;;;;;;;13.27;11.98;;;24.20;99.90;;;;;;5117152;28;20234;-76
2023/08/19 20:50:04;;;;;;;12.75;11.48;;;24.10;99.90;;;;;;5116422;28;20220;-77
2023/08/19 20:52:34;;;;;;;12.95;11.75;;;24.00;99.90;;;;;;5116109;28;20185;-80
2023/08/19 20:55:00;;;;;;;12.88;11.57;;;24.10;99.90;;;;;;5116483;28;20173;-78
2023/08/19 20:57:26;;;;;;;14.23;12.23;;;24.10;99.90;;;;;;5116392;28;20178;-82
2023/08/19 20:59:52;;;;;;;12.35;11.23;;;24.10;99.90;;;;;;5124349;28;20173;-78
2023/08/19 21:02:17;;;;;;;12.90;11.68;;;24.10;99.90;;;;;;5116334;28;20205;-78
2023/08/19 21:04:43;;;;;;;12.30;11.13;;;24.10;99.90;;;;;;5116182;28;20505;-77
2023/08/19 21:07:11;;;;;;;13.98;12.35;;;24.00;99.90;;;;;;5116286;28;20181;-79
2023/08/19 21:09:36;;;;;;;12.90;11.70;;;24.00;99.90;;;;;;5116109;28;20169;-80
2023/08/19 21:12:03;;;;;;;12.40;11.30;;;24.00;99.90;;;;;;5115815;28;20178;-80
2023/08/19 21:14:29;;;;;;;12.98;11.77;;;24.00;99.90;;;;;;5115916;28;20644;-81
2023/08/19 21:16:54;;;;;;;13.00;11.75;;;24.00;99.90;;;;;;5098091;28;20189;-80
2023/08/19 21:19:20;;;;;;;13.00;11.80;;;23.90;99.90;;;;;;5116197;28;20257;-78
2023/08/19 21:21:46;;;;;;;12.55;11.45;;;23.90;99.90;;;;;;5115820;28;20637;-81
2023/08/19 21:24:11;;;;;;;12.70;11.50;;;23.80;99.90;;;;;;5115830;28;20256;-80
2023/08/19 21:26:37;;;;;;;12.02;10.93;;;23.80;99.90;;;;;;5115758;28;20524;-81
2023/08/19 21:29:03;;;;;;;12.45;11.40;;;23.80;99.90;;;;;;5116175;28;20221;-80
2023/08/19 21:31:29;;;;;;;12.55;11.18;;;23.80;99.90;;;;;;5115699;28;20628;-81
2023/08/19 21:33:54;;;;;;;12.32;11.23;;;23.80;99.90;;;;;;5115364;28;21104;-81
2023/08/19 21:36:20;;;;;;;13.07;11.88;;;23.80;99.90;;;;;;5115713;28;20641;-80
2023/08/19 21:38:49;;;;;;;13.13;11.75;;;23.70;99.90;;;;;;5115333;28;20189;-79
2023/08/19 21:41:15;;;;;;;12.77;11.63;;;23.60;99.90;;;;;;5115479;28;20701;-77
2023/08/19 21:43:41;;;;;;;12.77;11.68;;;23.60;99.90;;;;;;5115362;28;20358;-80
2023/08/19 21:46:07;;;;;;;13.43;12.23;;;23.60;99.90;;;;;;5115239;28;20261;-80
2023/08/19 21:48:32;;;;;;;13.43;12.13;;;23.50;99.90;;;;;;5115434;28;20170;-81
2023/08/19 21:50:58;;;;;;;13.80;12.45;;;23.40;99.90;;;;;;5115331;28;20268;-80
2023/08/19 21:53:24;;;;;;;13.07;11.82;;;23.40;99.90;;;;;;5115883;28;20174;-81
2023/08/19 21:55:50;;;;;;;12.98;11.82;;;23.40;99.90;;;;;;5123197;28;20207;-80
2023/08/19 21:58:15;;;;;;;13.50;11.25;;;23.40;99.90;;;;;;5116109;28;20266;-82
2023/08/19 22:00:41;;;;;;;12.63;11.23;;;23.40;99.90;;;;;;5131405;28;20243;-81
2023/08/19 22:03:08;;;;;;;13.38;12.02;;;23.30;99.90;;;;;;5120718;28;20213;-79
2023/08/19 22:05:46;;;;;;;13.63;11.63;;;23.30;99.90;;;;;;5115462;28;20616;-77
2023/08/19 22:08:13;;;;;;;13.02;11.63;;;23.30;99.90;;;;;;5115691;28;20309;-80
2023/08/19 22:10:40;;;;;;;13.35;12.10;;;23.20;99.90;;;;;;5122401;28;20166;-78
2023/08/19 22:13:06;;;;;;;12.77;11.23;;;23.20;99.90;;;;;;5135902;28;20182;-79
2023/08/19 22:15:31;;;;;;;12.38;11.23;;;23.10;99.90;;;;;;5121643;28;20172;-78
2023/08/19 22:17:57;;;;;;;12.63;11.43;;;23.10;99.90;;;;;;5116627;28;20173;-76
2023/08/19 22:20:23;;;;;;;12.97;11.77;;;23.00;99.90;;;;;;5103714;28;20182;-80
2023/08/19 22:22:49;;;;;;;13.33;12.07;;;23.00;99.90;;;;;;5120908;28;20257;-78
2023/08/19 22:25:14;;;;;;;13.33;11.60;;;23.00;99.90;;;;;;5128588;28;20166;-81
2023/08/19 22:27:40;;;;;;;13.57;12.27;;;22.90;99.90;;;;;;5133353;28;20204;-77
2023/08/19 22:30:07;;;;;;;12.50;11.23;;;23.00;99.90;;;;;;5132154;28;20210;-78
2023/08/19 22:32:33;;;;;;;12.77;11.57;;;23.00;99.90;;;;;;5099732;28;20521;-77
2023/08/19 22:34:59;;;;;;;12.88;11.55;;;23.00;99.90;;;;;;5114994;28;20265;-78
2023/08/19 22:37:25;;;;;;;12.70;11.02;;;23.00;99.90;;;;;;5114928;28;20248;-78
2023/08/19 22:39:51;;;;;;;12.63;11.52;;;23.00;99.90;;;;;;5113262;28;20186;-75
2023/08/19 22:42:16;;;;;;;11.60;10.60;;;22.90;99.90;;;;;;5097842;28;20224;-78
2023/08/19 22:44:42;;;;;;;11.93;10.82;;;22.90;99.90;;;;;;5114014;28;20186;-78
2023/08/19 22:47:08;;;;;;;12.68;11.48;;;22.90;99.90;;;;;;5113383;28;20762;-80
2023/08/19 22:49:34;;;;;;;12.63;11.43;;;22.80;99.90;;;;;;5095941;28;20182;-80
2023/08/19 22:52:04;;;;;;;11.93;10.83;;;22.80;99.90;;;;;;5113397;28;20176;-82
2023/08/19 22:54:30;;;;;;;12.20;11.07;;;22.70;99.90;;;;;;5114466;28;20166;-81
2023/08/19 22:56:56;;;;;;;12.33;11.17;;;22.60;99.90;;;;;;5113963;28;20264;-81
2023/08/19 22:59:22;;;;;;;12.50;11.33;;;22.60;99.90;;;;;;5095768;28;20181;-80
2023/08/19 23:01:47;;;;;;;11.73;10.60;;;22.60;99.90;;;;;;5114300;28;20599;-80
2023/08/19 23:04:13;;;;;;;12.57;11.37;;;22.60;99.90;;;;;;5114274;28;20679;-79
2023/08/19 23:06:39;;;;;;;12.13;11.13;;;22.60;99.90;;;;;;5114200;28;20178;-79
2023/08/19 23:09:05;;;;;;;12.00;10.80;;;22.60;99.90;;;;;;5114361;28;20192;-81
2023/08/19 23:11:31;;;;;;;12.60;11.40;;;22.50;99.90;;;;;;5114279;28;20178;-78